createdAt,value
2023-02-09T00:03:17.414Z,101891.34
2023-02-09T00:07:16.153Z,101884.08
2023-02-09T00:11:14.128Z,101881.61
2023-02-09T00:15:12.138Z,101874.33
2023-02-09T00:19:10.114Z,101872.30
2023-02-09T00:23:08.142Z,101873.89
2023-02-09T00:27:06.070Z,101869.48
2023-02-09T00:31:05.120Z,101866.55
2023-02-09T00:35:04.072Z,101862.98
2023-02-09T00:39:02.134Z,101860.24
2023-02-09T00:43:00.016Z,101847.98
2023-02-09T00:46:59.044Z,101843.04
2023-02-09T00:50:56.992Z,101837.39
2023-02-09T00:54:56.092Z,101836.17
2023-02-09T00:58:53.966Z,101819.49
2023-02-09T01:02:51.978Z,101808.70
2023-02-09T01:06:50.013Z,101809.73
2023-02-09T01:10:47.974Z,101801.44
2023-02-09T01:14:46.010Z,101794.16
2023-02-09T01:18:44.097Z,101786.21
2023-02-09T01:22:41.965Z,101782.51
2023-02-09T01:26:39.968Z,101781.55
2023-02-09T01:30:37.990Z,101780.65
2023-02-09T01:34:35.918Z,101779.23
2023-02-09T01:38:34.130Z,101770.00
2023-02-09T01:42:35.075Z,101754.18
2023-02-09T01:46:32.961Z,101752.54
2023-02-09T01:50:31.900Z,101753.54
2023-02-09T01:54:34.924Z,101751.44
2023-02-09T01:58:34.973Z,101745.20
2023-02-09T02:02:33.886Z,101739.69
2023-02-09T02:06:32.918Z,101735.67
2023-02-09T02:10:32.020Z,101728.70
2023-02-09T02:14:52.927Z,101720.91
2023-02-09T02:18:50.856Z,101714.67
2023-02-09T02:23:13.969Z,101713.73
2023-02-09T02:27:15.853Z,101710.95
2023-02-09T02:31:28.979Z,101702.91
2023-02-09T02:36:00.808Z,101700.03
2023-02-09T02:40:13.872Z,101698.87
2023-02-09T02:44:17.898Z,101690.73
2023-02-09T02:48:49.980Z,101687.45
2023-02-09T02:52:47.855Z,101675.88
2023-02-09T02:56:51.880Z,101675.30
2023-02-09T03:00:55.771Z,101674.92
2023-02-09T03:04:55.856Z,101663.45
2023-02-09T03:09:09.053Z,101663.14
2023-02-09T03:13:21.871Z,101668.23
2023-02-09T03:17:40.770Z,101655.21
2023-02-09T03:22:05.806Z,101655.30
2023-02-09T03:26:06.782Z,101651.46
2023-02-09T03:30:08.908Z,101639.16
2023-02-09T03:34:06.731Z,101629.45
2023-02-09T03:38:04.791Z,101624.59
2023-02-09T03:42:02.820Z,101622.21
2023-02-09T03:46:00.742Z,101618.02
2023-02-09T03:49:58.717Z,101620.63
2023-02-09T03:53:58.208Z,101617.86
2023-02-09T03:57:55.812Z,101618.46
2023-02-09T04:01:53.844Z,101616.05
2023-02-09T04:05:51.698Z,101614.42
2023-02-09T04:09:49.705Z,101608.20
2023-02-09T04:13:47.785Z,101610.55
2023-02-09T04:17:45.796Z,101610.73
2023-02-09T04:21:43.708Z,101609.34
2023-02-09T04:25:51.764Z,101611.86
2023-02-09T04:29:49.750Z,101601.37
2023-02-09T04:33:47.814Z,101602.51
2023-02-09T04:37:45.795Z,101606.71
2023-02-09T04:41:43.662Z,101600.92
2023-02-09T04:45:41.657Z,101596.13
2023-02-09T04:49:39.934Z,101598.16
2023-02-09T04:53:37.633Z,101608.30
2023-02-09T04:57:52.789Z,101606.69
2023-02-09T05:01:50.632Z,101611.92
2023-02-09T05:05:52.659Z,101612.50
2023-02-09T05:09:50.759Z,101611.15
2023-02-09T05:13:48.802Z,101616.98
2023-02-09T05:17:47.580Z,101611.35
2023-02-09T05:21:45.661Z,101616.02
2023-02-09T05:25:43.603Z,101626.09
2023-02-09T05:29:41.587Z,101641.11
2023-02-09T05:33:40.584Z,101643.87
2023-02-09T05:37:38.620Z,101642.58
2023-02-09T05:41:54.621Z,101649.64
2023-02-09T05:45:52.614Z,101647.81
2023-02-09T05:49:50.590Z,101650.81
2023-02-09T05:53:48.586Z,101656.42
2023-02-09T05:57:46.634Z,101649.21
2023-02-09T06:01:44.594Z,101641.95
2023-02-09T06:05:42.542Z,101639.57
2023-02-09T06:09:42.591Z,101640.23
2023-02-09T06:13:40.598Z,101639.77
2023-02-09T06:17:38.574Z,101645.41
2023-02-09T06:21:36.488Z,101645.16
2023-02-09T06:25:34.540Z,101646.40
2023-02-09T06:29:32.530Z,101645.33
2023-02-09T06:33:30.594Z,101640.86
2023-02-09T06:37:28.540Z,101639.17
2023-02-09T06:41:26.552Z,101642.58
2023-02-09T06:45:28.479Z,101653.75
2023-02-09T06:49:28.478Z,101662.52
2023-02-09T06:53:26.429Z,101665.96
2023-02-09T06:57:24.470Z,101661.68
2023-02-09T07:01:07.841Z,101656.09
2023-02-09T07:04:33.979Z,101651.25
2023-02-09T07:07:58.165Z,101649.92
2023-02-09T07:11:22.925Z,101647.56
2023-02-09T07:14:49.270Z,101643.71
2023-02-09T07:18:13.446Z,101641.05
2023-02-09T07:21:37.485Z,101640.19
2023-02-09T07:25:01.496Z,101641.18
2023-02-09T07:28:25.390Z,101639.63
2023-02-09T07:31:49.288Z,101641.32
2023-02-09T07:35:13.188Z,101638.65
2023-02-09T07:38:37.932Z,101627.35
2023-02-09T07:42:02.091Z,101621.25
2023-02-09T07:45:43.180Z,101602.61
2023-02-09T07:49:07.244Z,101600.54
2023-02-09T07:52:31.252Z,101603.63
2023-02-09T07:55:55.655Z,101608.64
2023-02-09T07:59:19.520Z,101613.84
2023-02-09T08:02:45.268Z,101616.38
2023-02-09T08:06:19.631Z,101613.23
2023-02-09T08:09:45.196Z,101613.86
2023-02-09T08:13:09.558Z,101615.02
2023-02-09T08:16:35.398Z,101618.48
2023-02-09T08:20:05.712Z,101609.88
2023-02-09T08:23:34.026Z,101608.96
2023-02-09T08:26:57.970Z,101609.58
2023-02-09T08:30:21.880Z,101608.05
2023-02-09T08:33:48.362Z,101607.66
2023-02-09T08:37:14.812Z,101605.55
2023-02-09T08:40:41.566Z,101601.21
2023-02-09T08:44:05.548Z,101593.31
2023-02-09T08:47:29.466Z,101588.64
2023-02-09T08:50:53.527Z,101584.98
2023-02-09T08:54:17.594Z,101588.23
2023-02-09T08:57:44.479Z,101578.40
2023-02-09T09:01:10.349Z,101578.08
2023-02-09T09:04:34.602Z,101576.97
2023-02-09T09:07:58.509Z,101568.26
2023-02-09T09:11:22.367Z,101563.46
2023-02-09T09:14:46.417Z,101564.50
2023-02-09T09:18:11.064Z,101565.91
2023-02-09T09:21:35.060Z,101571.06
2023-02-09T09:24:59.027Z,101570.79
2023-02-09T09:28:25.472Z,101563.65
2023-02-09T09:31:49.963Z,101564.31
2023-02-09T09:35:13.947Z,101559.52
2023-02-09T09:38:39.397Z,101552.86
2023-02-09T09:42:06.266Z,101551.63
2023-02-09T09:45:33.290Z,101549.31
2023-02-09T09:48:59.268Z,101545.95
2023-02-09T09:52:45.727Z,101542.15
2023-02-09T09:56:11.793Z,101536.04
2023-02-09T09:59:38.872Z,101530.45
2023-02-09T10:03:03.945Z,101530.82
2023-02-09T10:06:34.381Z,101527.52
2023-02-09T10:10:21.266Z,101519.00
2023-02-09T10:13:54.112Z,101520.86
2023-02-09T10:17:18.180Z,101520.09
2023-02-09T10:20:45.646Z,101516.58
2023-02-09T10:24:14.757Z,101516.00
2023-02-09T10:27:46.656Z,101511.90
2023-02-09T10:31:16.317Z,101517.28
2023-02-09T10:34:41.035Z,101511.93
2023-02-09T10:38:05.564Z,101504.62
2023-02-09T10:41:34.914Z,101502.66
2023-02-09T10:45:08.524Z,101498.09
2023-02-09T10:48:43.566Z,101491.43
2023-02-09T10:52:13.581Z,101486.26
2023-02-09T10:55:42.882Z,101484.86
2023-02-09T10:59:21.867Z,101473.05
2023-02-09T11:03:01.881Z,101469.12
2023-02-09T11:06:26.654Z,101459.48
2023-02-09T11:09:53.282Z,101451.09
2023-02-09T11:13:25.103Z,101446.28
2023-02-09T11:17:07.267Z,101444.98
2023-02-09T11:20:43.712Z,101443.53
2023-02-09T11:24:19.749Z,101437.36
2023-02-09T11:28:48.224Z,101437.91
2023-02-09T11:32:26.593Z,101435.04
2023-02-09T11:36:13.474Z,101430.96
2023-02-09T11:40:00.857Z,101423.29
2023-02-09T11:43:36.948Z,101423.27
2023-02-09T11:47:11.310Z,101417.83
2023-02-09T11:51:16.682Z,101413.80
2023-02-09T11:54:41.084Z,101409.48
2023-02-09T11:58:30.426Z,101408.50
2023-02-09T12:02:03.859Z,101404.17
2023-02-09T12:05:28.599Z,101407.46
2023-02-09T12:09:23.132Z,101403.30
2023-02-09T12:12:54.699Z,101394.23
2023-02-09T12:16:22.054Z,101389.56
2023-02-09T12:19:55.236Z,101383.54
2023-02-09T12:23:31.694Z,101377.10
2023-02-09T12:26:57.595Z,101372.95
2023-02-09T12:30:41.393Z,101371.20
2023-02-09T12:34:14.886Z,101366.26
2023-02-09T12:38:19.078Z,101362.45
2023-02-09T12:41:45.485Z,101354.23
2023-02-09T12:45:40.125Z,101354.70
2023-02-09T12:49:20.926Z,101348.31
2023-02-09T12:53:23.349Z,101343.59
2023-02-09T12:56:48.433Z,101343.19
2023-02-09T13:00:13.516Z,101343.58
2023-02-09T13:03:53.125Z,101340.52
2023-02-09T13:07:28.134Z,101343.17
2023-02-09T13:10:57.199Z,101338.80
2023-02-09T13:14:24.432Z,101339.67
2023-02-09T13:18:19.688Z,101338.27
2023-02-09T13:22:20.839Z,101340.58
2023-02-09T13:25:45.250Z,101338.27
2023-02-09T13:29:20.534Z,101336.42
2023-02-09T13:33:33.407Z,101331.23
2023-02-09T13:37:40.915Z,101328.48
2023-02-09T13:41:09.186Z,101324.36
2023-02-09T13:44:34.879Z,101318.36
2023-02-09T13:48:00.908Z,101316.69
2023-02-09T13:51:24.839Z,101312.56
2023-02-09T13:54:49.083Z,101307.11
2023-02-09T13:58:20.797Z,101303.96
2023-02-09T14:01:47.123Z,101300.08
2023-02-09T14:05:11.296Z,101297.68
2023-02-09T14:08:36.294Z,101299.88
2023-02-09T14:12:04.893Z,101300.34
2023-02-09T14:15:51.592Z,101296.63
2023-02-09T14:19:48.742Z,101292.25
2023-02-09T14:23:16.944Z,101283.95
2023-02-09T14:27:05.047Z,101275.88
2023-02-09T14:30:51.027Z,101276.25
2023-02-09T14:34:49.905Z,101269.39
2023-02-09T14:38:57.912Z,101258.50
2023-02-09T14:43:17.907Z,101255.41
2023-02-09T14:47:15.886Z,101256.80
2023-02-09T14:51:28.911Z,101257.70
2023-02-09T14:55:36.001Z,101248.48
2023-02-09T14:59:34.805Z,101244.35
2023-02-09T15:03:35.848Z,101242.67
2023-02-09T15:07:44.793Z,101240.06
2023-02-09T15:12:01.818Z,101244.66
2023-02-09T15:15:59.853Z,101248.96
2023-02-09T15:19:57.816Z,101249.77
2023-02-09T15:23:55.852Z,101249.00
2023-02-09T15:28:00.935Z,101245.44
2023-02-09T15:31:59.891Z,101242.29
2023-02-09T15:35:59.315Z,101239.16
2023-02-09T15:39:56.890Z,101234.36
2023-02-09T15:44:11.738Z,101230.96
2023-02-09T15:48:09.743Z,101225.68
2023-02-09T15:52:07.745Z,101218.00
2023-02-09T15:56:05.968Z,101214.94
2023-02-09T16:00:03.832Z,101216.92
2023-02-09T16:04:12.875Z,101213.34
2023-02-09T16:08:12.752Z,101215.17
2023-02-09T16:12:11.797Z,101205.83
2023-02-09T16:16:16.982Z,101202.96
2023-02-09T16:20:15.709Z,101200.22
2023-02-09T16:24:16.848Z,101194.10
2023-02-09T16:28:14.796Z,101193.71
2023-02-09T16:32:12.728Z,101194.27
2023-02-09T16:36:16.803Z,101190.10
2023-02-09T16:40:15.679Z,101186.61
2023-02-09T16:44:14.676Z,101185.89
2023-02-09T16:48:13.614Z,101179.20
2023-02-09T16:52:15.793Z,101180.19
2023-02-09T16:56:18.725Z,101169.71
2023-02-09T17:00:16.668Z,101168.37
2023-02-09T17:04:15.775Z,101165.27
2023-02-09T17:08:19.689Z,101163.48
2023-02-09T17:12:17.669Z,101168.86
2023-02-09T17:16:19.662Z,101165.63
2023-02-09T17:20:17.654Z,101166.52
2023-02-09T17:24:16.670Z,101162.66
2023-02-09T17:28:14.719Z,101157.13
2023-02-09T17:32:16.600Z,101152.14
2023-02-09T17:36:26.305Z,101145.55
2023-02-09T17:40:34.647Z,101143.76
2023-02-09T17:44:46.139Z,101140.20
2023-02-09T17:48:44.631Z,101133.58
2023-02-09T17:52:42.652Z,101129.35
2023-02-09T17:56:40.655Z,101134.37
2023-02-09T18:00:39.550Z,101123.78
2023-02-09T18:04:40.546Z,101119.98
2023-02-09T18:08:39.746Z,101107.73
2023-02-09T18:12:40.559Z,101101.33
2023-02-09T18:16:38.630Z,101090.77
2023-02-09T18:20:42.593Z,101079.86
2023-02-09T18:24:44.576Z,101079.41
2023-02-09T18:28:43.537Z,101077.88
2023-02-09T18:32:41.543Z,101074.77
2023-02-09T18:36:39.533Z,101073.99
2023-02-09T18:40:38.574Z,101070.59
2023-02-09T18:44:40.502Z,101064.39
2023-02-09T18:48:38.576Z,101055.98
2023-02-09T18:52:36.500Z,101043.23
2023-02-09T18:56:36.487Z,101043.79
2023-02-09T19:00:35.480Z,101046.16
2023-02-09T19:04:34.217Z,101039.95
2023-02-09T19:08:32.469Z,101042.82
2023-02-09T19:12:30.673Z,101036.98
2023-02-09T19:16:28.592Z,101038.09
2023-02-09T19:20:31.655Z,101034.40
2023-02-09T19:24:30.323Z,101032.98
2023-02-09T19:28:29.406Z,101026.59
2023-02-09T19:32:29.566Z,101024.23
2023-02-09T19:36:28.585Z,101021.59
2023-02-09T19:40:34.541Z,101012.48
2023-02-09T19:44:32.509Z,101012.84
2023-02-09T19:48:30.387Z,101010.02
2023-02-09T19:52:28.471Z,101007.56
2023-02-09T19:56:30.431Z,101007.44
2023-02-09T20:00:31.435Z,101010.09
2023-02-09T20:04:30.463Z,101008.96
2023-02-09T20:08:32.502Z,101004.09
2023-02-09T20:12:30.538Z,101000.06
2023-02-09T20:16:33.689Z,100988.95
2023-02-09T20:20:31.347Z,100976.62
2023-02-09T20:24:29.394Z,100970.70
2023-02-09T20:28:27.401Z,100968.52
2023-02-09T20:32:25.460Z,100972.41
2023-02-09T20:36:25.513Z,100973.00
2023-02-09T20:40:23.357Z,100971.90
2023-02-09T20:44:38.333Z,100964.66
2023-02-09T20:48:36.352Z,100963.63
2023-02-09T20:52:34.394Z,100952.98
2023-02-09T20:56:32.479Z,100953.42
2023-02-09T21:00:30.331Z,100944.36
2023-02-09T21:04:28.499Z,100942.20
2023-02-09T21:08:26.273Z,100944.75
2023-02-09T21:12:24.403Z,100944.24
2023-02-09T21:16:23.300Z,100936.56
2023-02-09T21:20:21.439Z,100934.04
2023-02-09T21:24:19.371Z,100935.88
2023-02-09T21:28:17.442Z,100936.50
2023-02-09T21:32:17.245Z,100934.05
2023-02-09T21:36:15.343Z,100930.00
2023-02-09T21:40:13.246Z,100926.21
2023-02-09T21:44:13.351Z,100924.47
2023-02-09T21:48:13.236Z,100919.84
2023-02-09T21:52:11.256Z,100923.77
2023-02-09T21:56:09.217Z,100922.31
2023-02-09T22:00:11.249Z,100917.59
2023-02-09T22:04:09.211Z,100909.11
2023-02-09T22:08:07.230Z,100903.66
2023-02-09T22:12:05.162Z,100905.61
2023-02-09T22:16:03.270Z,100897.69
2023-02-09T22:20:01.133Z,100894.09
2023-02-09T22:23:59.262Z,100899.89
2023-02-09T22:27:57.254Z,100894.90
2023-02-09T22:31:57.593Z,100894.43
2023-02-09T22:35:56.186Z,100890.70
2023-02-09T22:39:54.143Z,100886.40
2023-02-09T22:43:52.139Z,100881.96
2023-02-09T22:47:51.227Z,100882.23
2023-02-09T22:51:50.232Z,100884.37
2023-02-09T22:55:48.526Z,100888.48
2023-02-09T22:59:46.197Z,100882.27
2023-02-09T23:03:44.472Z,100876.21
2023-02-09T23:07:42.169Z,100873.58
2023-02-09T23:11:40.157Z,100875.16
2023-02-09T23:15:38.272Z,100880.72
2023-02-09T23:19:36.209Z,100884.80
2023-02-09T23:23:34.289Z,100882.63
2023-02-09T23:27:32.156Z,100880.21
2023-02-09T23:31:33.142Z,100883.73
2023-02-09T23:35:31.088Z,100882.48
2023-02-09T23:39:33.073Z,100883.42
2023-02-09T23:43:31.110Z,100880.77
2023-02-09T23:47:29.175Z,100873.27
2023-02-09T23:51:31.299Z,100871.94
2023-02-09T23:55:36.042Z,100876.56
2023-02-09T23:59:34.129Z,100878.60
